DLH100 EDDF-EDDM
Flight info
| Callsign | DLH100 |
|---|---|
| Flight time | 0h 32m |
| Altitude | 23000 |
| Route | CINDY8S CINDY Z74 HAREM T104 ROKIL ROKIL1B |
| Aircraft | A319/M-SDE3FGHIRWY/LB1 |
Departure
| Time | 2026-05-04 22:38 |
|---|---|
| Airport | Frankfurt Main Airport (EDDF) |
Arrival
| Time | 2026-05-04 23:10 |
|---|---|
| Airport | Munich Airport (EDDM) |
| Time | Latitude | Longitude | Altitude | Speed | Heading |
|---|---|---|---|---|---|
| 2026-05-04 21:56 | 50.03202 | 8.58351 | 357 ft | 0 kts | 115° |
| 2026-05-04 22:08 | 50.03201 | 8.58355 | 358 ft | 0 kts | 115° |
| 2026-05-04 22:09 | 50.03202 | 8.58351 | 363 ft | 0 kts | 115° |
| 2026-05-04 22:15 | 50.03203 | 8.58347 | 363 ft | 3 kts | 115° |
| 2026-05-04 22:16 | 50.03214 | 8.58310 | 361 ft | 4 kts | 115° |
| 2026-05-04 22:16 | 50.03223 | 8.58279 | 359 ft | 4 kts | 105° |
| 2026-05-04 22:16 | 50.03221 | 8.58243 | 359 ft | 4 kts | 38° |
| 2026-05-04 22:16 | 50.03203 | 8.58231 | 360 ft | 2 kts | 2° |
| 2026-05-04 22:17 | 50.03230 | 8.58232 | 359 ft | 4 kts | 2° |
| 2026-05-04 22:17 | 50.03254 | 8.58234 | 357 ft | 1 kts | 2° |
| 2026-05-04 22:17 | 50.03278 | 8.58238 | 357 ft | 4 kts | 13° |
| 2026-05-04 22:17 | 50.03296 | 8.58251 | 356 ft | 3 kts | 24° |
| 2026-05-04 22:18 | 50.03321 | 8.58268 | 360 ft | 4 kts | 24° |
| 2026-05-04 22:18 | 50.03345 | 8.58285 | 357 ft | 4 kts | 24° |
| 2026-05-04 22:18 | 50.03370 | 8.58303 | 361 ft | 4 kts | 24° |
| 2026-05-04 22:18 | 50.03394 | 8.58320 | 357 ft | 4 kts | 24° |
| 2026-05-04 22:19 | 50.03419 | 8.58338 | 359 ft | 4 kts | 24° |
| 2026-05-04 22:19 | 50.03443 | 8.58355 | 359 ft | 4 kts | 24° |
| 2026-05-04 22:19 | 50.03468 | 8.58373 | 357 ft | 4 kts | 25° |
| 2026-05-04 22:19 | 50.03493 | 8.58390 | 363 ft | 4 kts | 25° |
| 2026-05-04 22:20 | 50.03517 | 8.58408 | 357 ft | 4 kts | 25° |
| 2026-05-04 22:20 | 50.03536 | 8.58421 | 363 ft | 0 kts | 25° |
| 2026-05-04 22:24 | 50.03543 | 8.58426 | 357 ft | 3 kts | 25° |
| 2026-05-04 22:24 | 50.03567 | 8.58443 | 362 ft | 5 kts | 25° |
| 2026-05-04 22:24 | 50.03599 | 8.58467 | 357 ft | 5 kts | 24° |
| 2026-05-04 22:25 | 50.03638 | 8.58494 | 359 ft | 7 kts | 26° |
| 2026-05-04 22:25 | 50.03686 | 8.58533 | 361 ft | 7 kts | 38° |
| 2026-05-04 22:25 | 50.03709 | 8.58607 | 363 ft | 9 kts | 70° |
| 2026-05-04 22:25 | 50.03732 | 8.58704 | 362 ft | 9 kts | 65° |
| 2026-05-04 22:26 | 50.03782 | 8.58739 | 362 ft | 7 kts | 354° |
| 2026-05-04 22:26 | 50.03821 | 8.58719 | 367 ft | 5 kts | 339° |
| 2026-05-04 22:26 | 50.03853 | 8.58701 | 368 ft | 6 kts | 340° |
| 2026-05-04 22:26 | 50.03902 | 8.58673 | 370 ft | 8 kts | 340° |
| 2026-05-04 22:27 | 50.03905 | 8.58671 | 369 ft | 0 kts | 340° |
| 2026-05-04 22:27 | 50.03921 | 8.58662 | 369 ft | 4 kts | 340° |
| 2026-05-04 22:28 | 50.03953 | 8.58644 | 374 ft | 6 kts | 340° |
| 2026-05-04 22:28 | 50.04004 | 8.58616 | 370 ft | 10 kts | 340° |
| 2026-05-04 22:28 | 50.04075 | 8.58595 | 371 ft | 12 kts | 351° |
| 2026-05-04 22:28 | 50.04163 | 8.58589 | 369 ft | 13 kts | 7° |
| 2026-05-04 22:29 | 50.04223 | 8.58547 | 369 ft | 10 kts | 265° |
| 2026-05-04 22:29 | 50.04201 | 8.58437 | 371 ft | 11 kts | 248° |
| 2026-05-04 22:29 | 50.04170 | 8.58319 | 370 ft | 12 kts | 249° |
| 2026-05-04 22:29 | 50.04139 | 8.58188 | 368 ft | 13 kts | 250° |
| 2026-05-04 22:30 | 50.04106 | 8.58048 | 369 ft | 14 kts | 250° |
| 2026-05-04 22:30 | 50.04071 | 8.57896 | 368 ft | 16 kts | 250° |
| 2026-05-04 22:30 | 50.04033 | 8.57734 | 370 ft | 16 kts | 250° |
| 2026-05-04 22:30 | 50.03994 | 8.57565 | 368 ft | 17 kts | 250° |
| 2026-05-04 22:31 | 50.03951 | 8.57383 | 367 ft | 19 kts | 250° |
| 2026-05-04 22:31 | 50.03907 | 8.57205 | 366 ft | 17 kts | 249° |
| 2026-05-04 22:31 | 50.03861 | 8.57016 | 362 ft | 20 kts | 249° |
| 2026-05-04 22:31 | 50.03809 | 8.56803 | 358 ft | 21 kts | 249° |
| 2026-05-04 22:32 | 50.03756 | 8.56580 | 356 ft | 22 kts | 250° |
| 2026-05-04 22:32 | 50.03702 | 8.56353 | 358 ft | 23 kts | 250° |
| 2026-05-04 22:32 | 50.03648 | 8.56122 | 356 ft | 23 kts | 250° |
| 2026-05-04 22:32 | 50.03590 | 8.55881 | 353 ft | 25 kts | 249° |
| 2026-05-04 22:33 | 50.03528 | 8.55622 | 353 ft | 26 kts | 249° |
| 2026-05-04 22:33 | 50.03463 | 8.55353 | 345 ft | 27 kts | 249° |
| 2026-05-04 22:33 | 50.03396 | 8.55075 | 343 ft | 28 kts | 250° |
| 2026-05-04 22:33 | 50.03328 | 8.54787 | 337 ft | 29 kts | 249° |
| 2026-05-04 22:34 | 50.03257 | 8.54486 | 335 ft | 30 kts | 250° |
| 2026-05-04 22:34 | 50.03185 | 8.54185 | 335 ft | 30 kts | 250° |
| 2026-05-04 22:34 | 50.03112 | 8.53875 | 332 ft | 31 kts | 249° |
| 2026-05-04 22:34 | 50.03068 | 8.53692 | 332 ft | 12 kts | 251° |
| 2026-05-04 22:35 | 50.03104 | 8.53595 | 335 ft | 12 kts | 338° |
| 2026-05-04 22:35 | 50.03179 | 8.53550 | 333 ft | 11 kts | 339° |
| 2026-05-04 22:35 | 50.03249 | 8.53511 | 338 ft | 10 kts | 340° |
| 2026-05-04 22:35 | 50.03307 | 8.53444 | 337 ft | 11 kts | 303° |
| 2026-05-04 22:36 | 50.03356 | 8.53336 | 336 ft | 13 kts | 312° |
| 2026-05-04 22:36 | 50.03391 | 8.53216 | 334 ft | 13 kts | 266° |
| 2026-05-04 22:36 | 50.03362 | 8.53076 | 332 ft | 14 kts | 248° |
| 2026-05-04 22:36 | 50.03326 | 8.52928 | 334 ft | 15 kts | 252° |
| 2026-05-04 22:37 | 50.03288 | 8.52771 | 331 ft | 16 kts | 249° |
| 2026-05-04 22:37 | 50.03230 | 8.52628 | 336 ft | 16 kts | 213° |
| 2026-05-04 22:37 | 50.03127 | 8.52596 | 335 ft | 16 kts | 180° |
| 2026-05-04 22:37 | 50.02844 | 8.52599 | 336 ft | 84 kts | 179° |
| 2026-05-04 22:38 | 50.01965 | 8.52607 | 336 ft | 165 kts | 180° |
| 2026-05-04 22:38 | 50.00765 | 8.52596 | 978 ft | 175 kts | 179° |
| 2026-05-04 22:38 | 49.99460 | 8.52578 | 1543 ft | 197 kts | 182° |
| 2026-05-04 22:38 | 49.98091 | 8.52527 | 2309 ft | 200 kts | 184° |
| 2026-05-04 22:39 | 49.96702 | 8.52547 | 3116 ft | 202 kts | 170° |
| 2026-05-04 22:39 | 49.95468 | 8.53501 | 4112 ft | 199 kts | 141° |
| 2026-05-04 22:39 | 49.94604 | 8.55203 | 4945 ft | 204 kts | 123° |
| 2026-05-04 22:39 | 49.93995 | 8.57337 | 5403 ft | 228 kts | 114° |
| 2026-05-04 22:40 | 49.93407 | 8.59774 | 5853 ft | 253 kts | 114° |
| 2026-05-04 22:40 | 49.92720 | 8.62434 | 6360 ft | 275 kts | 117° |
| 2026-05-04 22:40 | 49.91929 | 8.65187 | 7158 ft | 282 kts | 119° |
| 2026-05-04 22:40 | 49.91074 | 8.67910 | 8085 ft | 285 kts | 121° |
| 2026-05-04 22:41 | 49.90142 | 8.70680 | 9046 ft | 289 kts | 123° |
| 2026-05-04 22:41 | 49.89186 | 8.73409 | 9958 ft | 292 kts | 124° |
| 2026-05-04 22:41 | 49.88164 | 8.76252 | 10392 ft | 314 kts | 124° |
| 2026-05-04 22:41 | 49.87047 | 8.79311 | 10686 ft | 337 kts | 123° |
| 2026-05-04 22:42 | 49.85871 | 8.82537 | 11285 ft | 348 kts | 123° |
| 2026-05-04 22:42 | 49.84680 | 8.85829 | 12046 ft | 352 kts | 123° |
| 2026-05-04 22:42 | 49.83478 | 8.89160 | 12829 ft | 357 kts | 122° |
| 2026-05-04 22:42 | 49.82253 | 8.92547 | 13597 ft | 361 kts | 122° |
| 2026-05-04 22:43 | 49.81020 | 8.95944 | 14279 ft | 365 kts | 122° |
| 2026-05-04 22:43 | 49.79765 | 8.99392 | 14960 ft | 369 kts | 122° |
| 2026-05-04 22:43 | 49.78495 | 9.02873 | 15645 ft | 372 kts | 122° |
| 2026-05-04 22:43 | 49.77214 | 9.06381 | 16310 ft | 376 kts | 122° |
| 2026-05-04 22:44 | 49.76113 | 9.10097 | 16968 ft | 384 kts | 112° |
| 2026-05-04 22:44 | 49.75408 | 9.14105 | 17627 ft | 389 kts | 108° |
| 2026-05-04 22:44 | 49.74462 | 9.18025 | 18276 ft | 389 kts | 119° |
| 2026-05-04 22:44 | 49.73050 | 9.21568 | 18852 ft | 389 kts | 130° |
| 2026-05-04 22:45 | 49.71279 | 9.24768 | 19431 ft | 391 kts | 135° |
| 2026-05-04 22:45 | 49.68278 | 9.30042 | 20379 ft | 397 kts | 134° |
| 2026-05-04 22:45 | 49.65855 | 9.34325 | 21132 ft | 402 kts | 134° |
| 2026-05-04 22:46 | 49.64008 | 9.37583 | 21689 ft | 405 kts | 134° |
| 2026-05-04 22:46 | 49.62749 | 9.39801 | 22048 ft | 407 kts | 134° |
| 2026-05-04 22:46 | 49.60877 | 9.43103 | 22593 ft | 410 kts | 134° |
| 2026-05-04 22:46 | 49.58989 | 9.46431 | 22929 ft | 413 kts | 134° |
| 2026-05-04 22:47 | 49.57115 | 9.49729 | 22989 ft | 412 kts | 134° |
| 2026-05-04 22:47 | 49.55215 | 9.53065 | 22989 ft | 422 kts | 134° |
| 2026-05-04 22:47 | 49.53240 | 9.56525 | 22990 ft | 436 kts | 134° |
| 2026-05-04 22:47 | 49.51209 | 9.60082 | 22984 ft | 449 kts | 134° |
| 2026-05-04 22:48 | 49.49117 | 9.63735 | 22986 ft | 460 kts | 134° |
| 2026-05-04 22:48 | 49.46978 | 9.67460 | 22983 ft | 469 kts | 134° |
| 2026-05-04 22:48 | 49.44801 | 9.71250 | 22971 ft | 477 kts | 134° |
| 2026-05-04 22:48 | 49.42586 | 9.75108 | 22975 ft | 483 kts | 134° |
| 2026-05-04 22:49 | 49.40359 | 9.78988 | 22977 ft | 485 kts | 134° |
| 2026-05-04 22:49 | 49.38132 | 9.82860 | 22974 ft | 486 kts | 134° |
| 2026-05-04 22:49 | 49.35875 | 9.86767 | 22974 ft | 486 kts | 134° |
| 2026-05-04 22:49 | 49.33628 | 9.90643 | 22974 ft | 486 kts | 134° |
| 2026-05-04 22:50 | 49.31374 | 9.94521 | 22977 ft | 486 kts | 134° |
| 2026-05-04 22:50 | 49.29153 | 9.98341 | 22975 ft | 487 kts | 134° |
| 2026-05-04 22:50 | 49.26893 | 10.02232 | 22974 ft | 487 kts | 134° |
| 2026-05-04 22:50 | 49.24644 | 10.06099 | 22980 ft | 487 kts | 134° |
| 2026-05-04 22:51 | 49.22384 | 10.09971 | 22983 ft | 487 kts | 134° |
| 2026-05-04 22:51 | 49.20126 | 10.13833 | 22985 ft | 487 kts | 134° |
| 2026-05-04 22:51 | 49.17860 | 10.17697 | 22987 ft | 487 kts | 134° |
| 2026-05-04 22:51 | 49.15594 | 10.21560 | 22989 ft | 488 kts | 134° |
| 2026-05-04 22:52 | 49.13353 | 10.25375 | 22990 ft | 487 kts | 135° |
| 2026-05-04 22:52 | 49.11057 | 10.29184 | 22995 ft | 487 kts | 135° |
| 2026-05-04 22:52 | 49.08723 | 10.32950 | 22995 ft | 487 kts | 136° |
| 2026-05-04 22:52 | 49.06373 | 10.36676 | 22997 ft | 487 kts | 136° |
| 2026-05-04 22:53 | 49.04018 | 10.40388 | 22995 ft | 487 kts | 136° |
| 2026-05-04 22:53 | 49.01664 | 10.44103 | 22995 ft | 487 kts | 136° |
| 2026-05-04 22:53 | 48.99307 | 10.47843 | 22996 ft | 488 kts | 136° |
| 2026-05-04 22:53 | 48.96959 | 10.51584 | 22994 ft | 488 kts | 136° |
| 2026-05-04 22:54 | 48.94618 | 10.55326 | 22993 ft | 488 kts | 136° |
| 2026-05-04 22:54 | 48.92273 | 10.59070 | 22991 ft | 488 kts | 136° |
| 2026-05-04 22:54 | 48.89935 | 10.62797 | 22990 ft | 488 kts | 136° |
| 2026-05-04 22:54 | 48.87580 | 10.66540 | 22992 ft | 489 kts | 136° |
| 2026-05-04 22:55 | 48.85254 | 10.70229 | 22986 ft | 489 kts | 136° |
| 2026-05-04 22:55 | 48.82876 | 10.73996 | 22976 ft | 489 kts | 136° |
| 2026-05-04 22:55 | 48.80520 | 10.77718 | 22975 ft | 489 kts | 136° |
| 2026-05-04 22:55 | 48.78195 | 10.81381 | 22970 ft | 489 kts | 136° |
| 2026-05-04 22:56 | 48.75842 | 10.85076 | 22965 ft | 489 kts | 136° |
| 2026-05-04 22:56 | 48.73465 | 10.88796 | 22957 ft | 489 kts | 136° |
| 2026-05-04 22:56 | 48.71113 | 10.92467 | 22479 ft | 480 kts | 136° |
| 2026-05-04 22:56 | 48.68806 | 10.96069 | 21230 ft | 471 kts | 136° |
| 2026-05-04 22:57 | 48.66543 | 10.99600 | 20054 ft | 463 kts | 136° |
| 2026-05-04 22:57 | 48.64310 | 11.03076 | 18946 ft | 455 kts | 135° |
| 2026-05-04 22:57 | 48.62121 | 11.06473 | 17845 ft | 448 kts | 136° |
| 2026-05-04 22:57 | 48.59962 | 11.09817 | 16720 ft | 440 kts | 136° |
| 2026-05-04 22:58 | 48.57822 | 11.12955 | 15669 ft | 430 kts | 143° |
| 2026-05-04 22:58 | 48.55405 | 11.15563 | 14663 ft | 421 kts | 147° |
| 2026-05-04 22:58 | 48.53410 | 11.18748 | 13980 ft | 417 kts | 123° |
| 2026-05-04 22:58 | 48.52424 | 11.22719 | 13841 ft | 395 kts | 103° |
| 2026-05-04 22:59 | 48.52391 | 11.26726 | 13714 ft | 372 kts | 83° |
| 2026-05-04 22:59 | 48.52896 | 11.30423 | 13577 ft | 348 kts | 80° |
| 2026-05-04 22:59 | 48.53389 | 11.33888 | 13409 ft | 328 kts | 81° |
| 2026-05-04 22:59 | 48.53860 | 11.37202 | 13014 ft | 319 kts | 81° |
| 2026-05-04 23:00 | 48.54317 | 11.40461 | 12946 ft | 317 kts | 81° |
| 2026-05-04 23:00 | 48.54773 | 11.43728 | 12951 ft | 318 kts | 81° |
| 2026-05-04 23:00 | 48.55229 | 11.46988 | 12951 ft | 318 kts | 81° |
| 2026-05-04 23:00 | 48.55684 | 11.50221 | 12941 ft | 309 kts | 81° |
| 2026-05-04 23:01 | 48.56123 | 11.53326 | 12867 ft | 297 kts | 81° |
| 2026-05-04 23:01 | 48.56522 | 11.56335 | 12728 ft | 287 kts | 86° |
| 2026-05-04 23:01 | 48.56532 | 11.59279 | 12585 ft | 275 kts | 101° |
| 2026-05-04 23:01 | 48.56101 | 11.62013 | 12345 ft | 266 kts | 115° |
| 2026-05-04 23:02 | 48.55293 | 11.64497 | 12061 ft | 261 kts | 123° |
| 2026-05-04 23:02 | 48.54412 | 11.66872 | 11598 ft | 258 kts | 123° |
| 2026-05-04 23:02 | 48.53544 | 11.69234 | 11136 ft | 256 kts | 122° |
| 2026-05-04 23:02 | 48.52685 | 11.71580 | 10689 ft | 253 kts | 122° |
| 2026-05-04 23:03 | 48.51849 | 11.73865 | 10253 ft | 251 kts | 122° |
| 2026-05-04 23:03 | 48.51011 | 11.76155 | 9837 ft | 247 kts | 122° |
| 2026-05-04 23:03 | 48.50210 | 11.78345 | 9667 ft | 232 kts | 122° |
| 2026-05-04 23:03 | 48.49440 | 11.80444 | 9300 ft | 226 kts | 122° |
| 2026-05-04 23:04 | 48.48680 | 11.82508 | 8865 ft | 223 kts | 122° |
| 2026-05-04 23:04 | 48.47942 | 11.84508 | 8437 ft | 221 kts | 121° |
| 2026-05-04 23:04 | 48.47190 | 11.86542 | 7972 ft | 222 kts | 121° |
| 2026-05-04 23:04 | 48.46436 | 11.88584 | 7545 ft | 222 kts | 121° |
| 2026-05-04 23:05 | 48.45686 | 11.90618 | 7121 ft | 222 kts | 121° |
| 2026-05-04 23:05 | 48.44932 | 11.92651 | 6684 ft | 223 kts | 121° |
| 2026-05-04 23:05 | 48.44173 | 11.94699 | 6301 ft | 221 kts | 121° |
| 2026-05-04 23:05 | 48.43448 | 11.96663 | 6011 ft | 214 kts | 120° |
| 2026-05-04 23:06 | 48.42716 | 11.98718 | 5364 ft | 226 kts | 118° |
| 2026-05-04 23:06 | 48.41903 | 12.00745 | 5003 ft | 220 kts | 135° |
| 2026-05-04 23:06 | 48.40636 | 12.01710 | 4948 ft | 199 kts | 176° |
| 2026-05-04 23:06 | 48.39370 | 12.01457 | 4945 ft | 171 kts | 208° |
| 2026-05-04 23:07 | 48.38479 | 12.00465 | 4951 ft | 155 kts | 234° |
| 2026-05-04 23:07 | 48.37999 | 11.99111 | 4960 ft | 143 kts | 256° |
| 2026-05-04 23:07 | 48.37857 | 11.97646 | 4971 ft | 141 kts | 264° |
| 2026-05-04 23:07 | 48.37743 | 11.96161 | 4734 ft | 144 kts | 265° |
| 2026-05-04 23:08 | 48.37631 | 11.94692 | 4349 ft | 141 kts | 266° |
| 2026-05-04 23:08 | 48.37542 | 11.93174 | 3770 ft | 149 kts | 266° |
| 2026-05-04 23:08 | 48.37423 | 11.91626 | 3276 ft | 150 kts | 267° |
| 2026-05-04 23:08 | 48.37289 | 11.90129 | 2992 ft | 141 kts | 267° |
| 2026-05-04 23:09 | 48.37186 | 11.88677 | 2678 ft | 137 kts | 272° |
| 2026-05-04 23:09 | 48.37078 | 11.87245 | 2408 ft | 138 kts | 267° |
| 2026-05-04 23:09 | 48.36963 | 11.85793 | 1967 ft | 147 kts | 266° |
| 2026-05-04 23:09 | 48.36850 | 11.84308 | 1759 ft | 143 kts | 264° |
| 2026-05-04 23:10 | 48.36737 | 11.82818 | 1630 ft | 145 kts | 265° |
| 2026-05-04 23:10 | 48.36624 | 11.81328 | 1484 ft | 133 kts | 265° |
| 2026-05-04 23:10 | 48.36539 | 11.80164 | 1485 ft | 88 kts | 264° |
| 2026-05-04 23:10 | 48.36489 | 11.79502 | 1485 ft | 39 kts | 264° |
| 2026-05-04 23:11 | 48.36463 | 11.79174 | 1474 ft | 30 kts | 261° |
| 2026-05-04 23:11 | 48.36385 | 11.78885 | 1476 ft | 31 kts | 236° |
| 2026-05-04 23:11 | 48.36298 | 11.78700 | 1485 ft | 18 kts | 233° |
| 2026-05-04 23:11 | 48.36221 | 11.78545 | 1483 ft | 19 kts | 233° |
| 2026-05-04 23:12 | 48.36107 | 11.78482 | 1482 ft | 19 kts | 174° |
| 2026-05-04 23:12 | 48.36037 | 11.78590 | 1485 ft | 17 kts | 86° |
| 2026-05-04 23:12 | 48.36051 | 11.78769 | 1482 ft | 18 kts | 83° |
| 2026-05-04 23:12 | 48.36067 | 11.78948 | 1485 ft | 17 kts | 94° |
| 2026-05-04 23:13 | 48.36077 | 11.79119 | 1478 ft | 17 kts | 83° |
| 2026-05-04 23:13 | 48.36087 | 11.79285 | 1485 ft | 13 kts | 101° |
| 2026-05-04 23:13 | 48.36008 | 11.79332 | 1481 ft | 13 kts | 176° |
| 2026-05-04 23:13 | 48.35919 | 11.79362 | 1475 ft | 13 kts | 141° |
| 2026-05-04 23:14 | 48.35892 | 11.79493 | 1485 ft | 14 kts | 126° |
| 2026-05-04 23:14 | 48.35808 | 11.79547 | 1483 ft | 13 kts | 124° |
| 2026-05-04 23:14 | 48.35805 | 11.79683 | 1481 ft | 14 kts | 83° |
| 2026-05-04 23:14 | 48.35815 | 11.79829 | 1485 ft | 14 kts | 84° |
| 2026-05-04 23:15 | 48.35826 | 11.79979 | 1485 ft | 14 kts | 84° |
| 2026-05-04 23:15 | 48.35776 | 11.80067 | 1484 ft | 11 kts | 178° |
| 2026-05-04 23:15 | 48.35752 | 11.80012 | 1485 ft | 6 kts | 255° |
| 2026-05-04 23:15 | 48.35746 | 11.79957 | 1481 ft | 3 kts | 264° |
| 2026-05-04 23:16 | 48.35744 | 11.79930 | 1485 ft | 2 kts | 263° |
| 2026-05-04 23:16 | 48.35744 | 11.79928 | 1485 ft | 0 kts | 263° |